Terminal Aerodrome Forecast
Issued by NWS Sioux Falls, SD

Home | Current Version | Previous Version | Text Only | Print | Product List | Glossary On
Versions: 1 2 3 4 5 6 7 8 9 10 11 12 13 14
000
FTUS43 KFSD 301120
TAFSUX
TAF
KSUX 301120Z 3012/3112 00000KT 3SM BR SKC
      TEMPO 3012/3014 1/2SM FG
     FM301600 15006KT P6SM SKC
     FM310300 13006KT P6SM BKN090=

USA.gov is the U.S. government's official web portal to all federal, state and local government web resources and services.